Time;durP1;ratioP1;P1;durP2;ratioP2;P2;SDS_P1;SDS_P2;PMS_P1;PMS_P2;Temp;Humidity;BMP_temperature;BMP_pressure;BME280_temperature;BME280_humidity;BME280_pressure;Samples;Min_cycle;Max_cycle;Signal;HPM_P1;HPM_P2
2021/11/21 00:00:00;;;;;;;4.43;2.90;;;;;;;-2.15;100.00;92941.13;2081875;28;20414;-88
2021/11/21 00:01:03;;;;;;;3.53;3.00;;;;;;;-1.98;100.00;92932.13;2075911;28;20029;-88
2021/11/21 00:02:05;;;;;;;3.63;3.20;;;;;;;-2.04;100.00;92936.88;2090812;28;20029;-87
2021/11/21 00:03:07;;;;;;;4.28;3.22;;;;;;;-2.12;100.00;92937.81;2098786;28;20146;-87
2021/11/21 00:04:08;;;;;;;3.30;3.00;;;;;;;-2.29;100.00;92933.69;2114973;28;20056;-88
2021/11/21 00:05:10;;;;;;;3.30;3.00;;;;;;;-2.29;100.00;92928.47;2115082;28;20061;-88
2021/11/21 00:06:15;;;;;;;4.60;3.00;;;;;;;-2.34;100.00;92928.72;2106508;28;20485;-87
2021/11/21 00:07:18;;;;;;;3.42;3.15;;;;;;;-2.19;100.00;92929.06;2082975;28;20042;-86
2021/11/21 00:08:21;;;;;;;3.40;3.10;;;;;;;-2.12;100.00;92924.72;2090486;28;20390;-88
2021/11/21 00:09:28;;;;;;;5.75;3.30;;;;;;;-2.16;100.00;92925.75;2098718;28;20035;-88
2021/11/21 00:10:34;;;;;;;3.40;3.03;;;;;;;-2.13;100.00;92922.47;2091040;28;20028;-88
2021/11/21 00:11:37;;;;;;;4.38;3.30;;;;;;;-2.22;100.00;92925.25;2087267;28;20029;-89
2021/11/21 00:12:43;;;;;;;3.22;2.92;;;;;;;-2.09;100.00;92918.06;2090673;28;20032;-87
2021/11/21 00:13:51;;;;;;;3.25;2.70;;;;;;;-2.17;100.00;92922.38;2084812;28;20122;-89
2021/11/21 00:14:56;;;;;;;3.00;2.80;;;;;;;-2.16;100.00;92915.28;2091806;28;20020;-87
2021/11/21 00:15:57;;;;;;;5.70;3.13;;;;;;;-2.21;100.00;92916.31;2099457;28;20104;-86
2021/11/21 00:17:01;;;;;;;4.38;3.38;;;;;;;-2.17;100.00;92906.66;2106782;28;20039;-88
2021/11/21 00:18:05;;;;;;;3.78;3.40;;;;;;;-2.15;100.00;92912.34;2098723;28;20490;-86
2021/11/21 00:19:07;;;;;;;3.40;3.05;;;;;;;-2.08;100.00;92914.34;2090774;28;20039;-89
2021/11/21 00:20:16;;;;;;;3.08;2.78;;;;;;;-2.12;100.00;92908.25;2098332;28;20093;-89
2021/11/21 00:21:18;;;;;;;3.40;3.10;;;;;;;-2.05;100.00;92905.81;2099380;28;20495;-87
2021/11/21 00:22:19;;;;;;;4.35;3.10;;;;;;;-2.14;100.00;92913.09;2106570;28;20028;-87
2021/11/21 00:23:21;;;;;;;3.20;2.90;;;;;;;-2.19;100.00;92908.13;2106503;28;20027;-89
2021/11/21 00:24:22;;;;;;;4.05;3.17;;;;;;;-2.16;100.00;92899.56;2098726;28;20534;-88
2021/11/21 00:25:23;;;;;;;3.47;3.17;;;;;;;-2.07;100.00;92906.13;2106585;28;20061;-88
2021/11/21 00:26:24;;;;;;;2.83;2.63;;;;;;;-1.97;100.00;92899.63;2106555;28;20020;-88
2021/11/21 00:27:26;;;;;;;3.30;3.00;;;;;;;-2.04;100.00;92902.09;2090050;28;20028;-87
2021/11/21 00:28:27;;;;;;;4.32;3.05;;;;;;;-1.94;100.00;92898.94;2090127;28;20426;-88
2021/11/21 00:29:28;;;;;;;3.55;3.25;;;;;;;-2.06;100.00;92899.06;2098150;28;20035;-88
2021/11/21 00:30:31;;;;;;;3.28;2.97;;;;;;;-2.09;100.00;92902.34;2090321;28;20196;-88
2021/11/21 00:31:34;;;;;;;4.03;3.53;;;;;;;-2.09;100.00;92905.72;2090235;28;20028;-88
2021/11/21 00:32:35;;;;;;;3.45;3.15;;;;;;;-2.00;100.00;92900.31;2098417;28;20024;-88
2021/11/21 00:33:37;;;;;;;3.83;3.35;;;;;;;-2.09;100.00;92902.34;2098685;28;20118;-88
2021/11/21 00:34:39;;;;;;;3.47;3.17;;;;;;;-1.92;100.00;92899.38;2098290;28;20050;-88
2021/11/21 00:35:40;;;;;;;2.95;2.75;;;;;;;-2.00;100.00;92900.31;2098325;28;20017;-88
2021/11/21 00:36:41;;;;;;;3.30;2.90;;;;;;;-2.11;100.00;92902.72;2106573;28;20020;-88
2021/11/21 00:37:42;;;;;;;3.40;3.13;;;;;;;-2.14;100.00;92902.63;2089947;28;20126;-87
2021/11/21 00:38:47;;;;;;;3.92;3.63;;;;;;;-2.15;100.00;92888.78;2098134;28;20458;-88
2021/11/21 00:39:56;;;;;;;3.28;2.80;;;;;;;-1.99;100.00;92886.09;2090778;28;20038;-88
2021/11/21 00:41:15;;;;;;;3.15;2.85;;;;;;;-1.98;100.00;92886.88;2101732;28;20020;-89
2021/11/21 00:42:20;;;;;;;3.45;2.95;;;;;;;-2.03;100.00;92890.50;2089907;28;20476;-86
2021/11/21 00:43:24;;;;;;;3.28;2.97;;;;;;;-1.94;100.00;92885.84;2091703;28;20636;-88
2021/11/21 00:44:29;;;;;;;3.78;3.10;;;;;;;-1.98;100.00;92887.63;2092673;28;20031;-88
2021/11/21 00:45:32;;;;;;;4.72;3.05;;;;;;;-1.95;100.00;92878.34;2091103;28;20036;-88
2021/11/21 00:46:33;;;;;;;3.90;3.50;;;;;;;-2.09;100.00;92876.94;2106600;28;20047;-89
2021/11/21 00:47:35;;;;;;;3.53;3.22;;;;;;;-2.04;100.00;92875.91;2098144;28;20032;-89
2021/11/21 00:48:38;;;;;;;3.08;2.88;;;;;;;-2.12;100.00;92872.38;2089258;28;20021;-87
2021/11/21 00:49:41;;;;;;;4.15;3.08;;;;;;;-1.99;100.00;92874.88;2090258;28;20021;-88
2021/11/21 00:50:41;;;;;;;3.67;3.33;;;;;;;-2.01;100.00;92872.59;2090114;28;20021;-89
2021/11/21 00:51:47;;;;;;;4.85;3.20;;;;;;;-2.05;100.00;92872.53;2098199;28;20115;-87
2021/11/21 00:52:48;;;;;;;4.18;3.08;;;;;;;-2.08;100.00;92878.44;2106914;28;20020;-88
2021/11/21 00:53:53;;;;;;;3.28;2.97;;;;;;;-2.17;100.00;92872.63;2098086;28;20024;-89
2021/11/21 00:55:04;;;;;;;4.28;3.22;;;;;;;-2.12;100.00;92867.13;2090834;28;20033;-87
2021/11/21 00:56:07;;;;;;;3.85;3.22;;;;;;;-2.04;100.00;92873.28;2092547;28;20250;-89
2021/11/21 00:57:08;;;;;;;4.00;3.30;;;;;;;-2.06;100.00;92871.03;2098378;28;20032;-88
2021/11/21 00:58:12;;;;;;;3.75;2.80;;;;;;;-2.03;100.00;92870.31;2094570;28;20081;-89
2021/11/21 00:59:13;;;;;;;3.75;3.45;;;;;;;-2.11;100.00;92862.66;2090333;28;20020;-88
2021/11/21 01:00:15;;;;;;;3.88;3.47;;;;;;;-2.13;100.00;92859.63;2089868;28;20167;-89
2021/11/21 01:01:16;;;;;;;3.60;3.05;;;;;;;-2.10;100.00;92861.56;2089695;28;20075;-90
2021/11/21 01:02:21;;;;;;;5.18;3.50;;;;;;;-2.20;100.00;92856.84;2098098;28;20029;-88
2021/11/21 01:03:24;;;;;;;4.07;3.30;;;;;;;-2.26;100.00;92855.59;2090121;28;20041;-88
2021/11/21 01:04:25;;;;;;;3.90;3.50;;;;;;;-2.30;100.00;92850.28;2098686;28;20450;-88
2021/11/21 01:05:26;;;;;;;3.50;3.20;;;;;;;-2.19;100.00;92856.53;2097837;28;20028;-89
2021/11/21 01:06:27;;;;;;;4.00;3.55;;;;;;;-2.29;100.00;92852.56;2104247;28;20537;-88
2021/11/21 01:07:28;;;;;;;3.47;3.17;;;;;;;-2.22;100.00;92851.22;2106335;28;20038;-87
2021/11/21 01:08:29;;;;;;;6.90;3.72;;;;;;;-2.15;100.00;92851.34;2097768;28;20024;-88
2021/11/21 01:09:30;;;;;;;4.10;3.53;;;;;;;-2.09;100.00;92848.13;2097872;28;20893;-88
2021/11/21 01:10:32;;;;;;;3.92;3.55;;;;;;;-2.14;100.00;92848.41;2098015;28;20040;-87
2021/11/21 01:11:33;;;;;;;4.03;3.63;;;;;;;-2.11;100.00;92852.19;2089849;28;20024;-89
2021/11/21 01:12:34;;;;;;;4.43;3.05;;;;;;;-2.12;100.00;92842.81;2097859;28;20056;-87
2021/11/21 01:13:37;;;;;;;3.47;3.17;;;;;;;-2.15;100.00;92846.09;2089701;28;20041;-87
2021/11/21 01:14:39;;;;;;;3.88;3.47;;;;;;;-2.13;100.00;92857.00;2098467;28;20035;-89
2021/11/21 01:15:40;;;;;;;3.97;3.53;;;;;;;-2.19;100.00;92856.53;2106325;28;20071;-88
2021/11/21 01:16:42;;;;;;;4.32;3.70;;;;;;;-2.20;100.00;92849.75;2097841;28;20505;-87
2021/11/21 01:17:45;;;;;;;3.40;2.70;;;;;;;-2.18;100.00;92847.56;2097875;28;20394;-88
2021/11/21 01:18:46;;;;;;;4.00;3.53;;;;;;;-2.14;100.00;92845.78;2098446;28;20099;-88
2021/11/21 01:19:51;;;;;;;4.13;3.72;;;;;;;-2.14;100.00;92847.66;2106097;28;20489;-85
2021/11/21 01:20:52;;;;;;;5.03;3.72;;;;;;;-2.26;100.00;92850.38;2113065;27;20034;-88
2021/11/21 01:21:54;;;;;;;4.05;3.65;;;;;;;-2.24;100.00;92846.28;2105782;28;20038;-89
2021/11/21 01:22:55;;;;;;;4.28;3.72;;;;;;;-2.24;100.00;92843.69;2101440;28;21360;-88
2021/11/21 01:23:57;;;;;;;3.60;3.30;;;;;;;-2.20;100.00;92843.75;2097190;28;20063;-87
2021/11/21 01:24:59;;;;;;;4.22;3.40;;;;;;;-2.20;100.00;92835.91;2097586;28;20029;-88
2021/11/21 01:26:02;;;;;;;3.97;3.67;;;;;;;-2.18;100.00;92831.84;2105906;28;20079;-88
2021/11/21 01:27:08;;;;;;;3.50;3.20;;;;;;;-2.22;100.00;92844.13;2098471;28;20053;-88
2021/11/21 01:28:10;;;;;;;5.32;3.55;;;;;;;-2.28;100.00;92837.63;2098426;28;20056;-87
2021/11/21 01:29:14;;;;;;;3.80;3.40;;;;;;;-2.24;100.00;92833.22;2089461;28;20636;-88
2021/11/21 01:30:22;;;;;;;3.55;3.17;;;;;;;-2.22;100.00;92835.50;2090385;28;20508;-87
2021/11/21 01:31:23;;;;;;;5.95;3.65;;;;;;;-2.16;100.00;92832.25;2098736;28;20036;-89
2021/11/21 01:32:25;;;;;;;5.63;3.40;;;;;;;-2.25;100.00;92836.94;2089563;28;20060;-88
2021/11/21 01:33:27;;;;;;;6.00;3.50;;;;;;;-2.34;100.00;92831.88;2092711;28;20851;-87
2021/11/21 01:34:28;;;;;;;4.13;3.70;;;;;;;-2.43;100.00;92830.56;2089564;28;20033;-87
2021/11/21 01:35:30;;;;;;;5.35;4.38;;;;;;;-2.34;100.00;92836.38;2081245;28;20393;-89
2021/11/21 01:36:31;;;;;;;5.07;3.33;;;;;;;-2.29;100.00;92828.25;2090152;28;20063;-89
2021/11/21 01:37:32;;;;;;;4.85;3.88;;;;;;;-2.25;100.00;92831.69;2106078;28;20024;-87
2021/11/21 01:38:35;;;;;;;4.88;3.10;;;;;;;-2.16;100.00;92821.03;2114552;28;20506;-88
2021/11/21 01:39:36;;;;;;;3.95;3.55;;;;;;;-1.99;100.00;92823.25;2097795;28;20029;-86
2021/11/21 01:40:37;;;;;;;4.07;3.75;;;;;;;-2.17;100.00;92832.63;2089413;28;20036;-88
2021/11/21 01:41:38;;;;;;;5.10;3.75;;;;;;;-2.25;100.00;92830.94;2089583;28;20123;-90
2021/11/21 01:42:40;;;;;;;3.85;3.55;;;;;;;-2.35;100.00;92825.13;2105858;28;20035;-89
2021/11/21 01:43:42;;;;;;;4.85;3.72;;;;;;;-2.42;100.00;92830.22;2101060;28;20028;-89
2021/11/21 01:44:43;;;;;;;5.05;3.38;;;;;;;-2.37;100.00;92823.94;2097713;28;20040;-88
2021/11/21 01:45:44;;;;;;;6.82;3.40;;;;;;;-2.45;100.00;92824.91;2089459;28;20036;-88
2021/11/21 01:46:45;;;;;;;3.70;3.40;;;;;;;-2.36;100.00;92828.09;2089389;28;20032;-87
2021/11/21 01:47:48;;;;;;;4.85;3.90;;;;;;;-2.28;100.00;92816.69;2090864;28;20083;-88
2021/11/21 01:48:49;;;;;;;4.00;3.60;;;;;;;-2.35;100.00;92827.75;2098004;28;20107;-88
2021/11/21 01:49:50;;;;;;;4.65;3.35;;;;;;;-2.37;100.00;92816.09;2097548;28;20051;-86
2021/11/21 01:50:52;;;;;;;3.72;3.38;;;;;;;-2.06;100.00;92821.28;2089346;28;20123;-87
2021/11/21 01:51:53;;;;;;;4.03;3.63;;;;;;;-2.17;100.00;92816.91;2081426;28;20534;-89
2021/11/21 01:52:55;;;;;;;3.60;3.30;;;;;;;-2.26;100.00;92818.97;2089366;28;20070;-88
2021/11/21 01:53:57;;;;;;;4.45;3.60;;;;;;;-2.23;100.00;92816.41;2089654;28;20031;-87
2021/11/21 01:54:59;;;;;;;5.45;3.38;;;;;;;-2.29;100.00;92808.06;2089689;28;20061;-88
2021/11/21 01:56:00;;;;;;;4.63;4.22;;;;;;;-2.26;100.00;92809.25;2097513;28;20115;-87
2021/11/21 01:57:02;;;;;;;4.22;3.72;;;;;;;-2.01;100.00;92814.25;2088963;28;20052;-88
2021/11/21 01:58:04;;;;;;;4.03;3.63;;;;;;;-1.97;100.00;92807.97;2089625;28;20045;-89
2021/11/21 01:59:08;;;;;;;3.75;3.40;;;;;;;-2.20;100.00;92815.72;2106128;28;20032;-87
2021/11/21 02:00:11;;;;;;;4.25;3.30;;;;;;;-2.33;100.00;92807.25;2114011;28;20491;-87
2021/11/21 02:01:12;;;;;;;4.20;3.65;;;;;;;-2.25;100.00;92802.91;2106144;28;20024;-90
2021/11/21 02:02:14;;;;;;;4.75;4.03;;;;;;;-2.25;100.00;92802.91;2097487;28;20512;-90
2021/11/21 02:03:17;;;;;;;3.80;3.45;;;;;;;-2.33;100.00;92802.00;2089504;28;20029;-88
2021/11/21 02:04:18;;;;;;;4.75;3.47;;;;;;;-2.25;100.00;92789.06;2098541;28;20020;-87
2021/11/21 02:05:21;;;;;;;5.63;3.83;;;;;;;-2.42;100.00;92793.56;2097548;28;20028;-89
2021/11/21 02:06:23;;;;;;;4.93;4.22;;;;;;;-2.44;100.00;92793.16;2089835;28;20028;-87
2021/11/21 02:08:52;;;;;;;3.08;2.88;;;;;;;-2.37;100.00;92782.88;2140966;27;20201;-82
2021/11/21 02:09:52;;;;;;;3.90;3.53;;;;;;;-2.55;100.00;92779.88;2130366;27;20027;-86
2021/11/21 02:10:58;;;;;;;3.88;3.15;;;;;;;-2.45;100.00;92786.44;2113246;28;20675;-83
2021/11/21 02:11:59;;;;;;;4.95;3.35;;;;;;;-2.42;100.00;92782.34;2113139;28;20052;-83
2021/11/21 02:13:01;;;;;;;4.30;3.90;;;;;;;-2.47;100.00;92778.16;2099206;28;20094;-84
2021/11/21 02:14:08;;;;;;;3.50;3.20;;;;;;;-2.39;100.00;92779.06;2105147;28;20032;-85
2021/11/21 02:15:12;;;;;;;3.22;2.83;;;;;;;-2.32;100.00;92776.59;2122736;27;20027;-86
2021/11/21 02:17:06;;;;;;;4.10;3.60;;;;;;;-2.26;100.00;92764.00;2108464;28;20028;-85
2021/11/21 02:18:07;;;;;;;3.92;3.53;;;;;;;-2.10;100.00;92762.09;2111416;28;20032;-84
2021/11/21 02:19:08;;;;;;;4.45;3.95;;;;;;;-2.05;100.00;92761.81;2100285;28;20035;-84
2021/11/21 02:20:15;;;;;;;3.40;3.10;;;;;;;-2.04;100.00;92766.69;2113151;28;20161;-82
2021/11/21 02:21:17;;;;;;;4.18;3.60;;;;;;;-2.25;100.00;92763.63;2117808;28;20065;-84
2021/11/21 02:22:23;;;;;;;4.72;3.20;;;;;;;-2.21;100.00;92761.84;2105887;28;20493;-83
2021/11/21 02:23:31;;;;;;;3.97;3.58;;;;;;;-2.32;100.00;92773.97;2101906;28;20031;-84
2021/11/21 02:24:37;;;;;;;3.67;3.38;;;;;;;-2.47;100.00;92765.06;2098278;28;20028;-83
2021/11/21 02:54:12;;;;;;;4.35;3.08;;;;;;;-2.64;100.00;92741.91;2108618;28;20490;-83
2021/11/21 03:05:35;;;;;;;4.05;3.65;;;;;;;-2.62;100.00;92729.25;2093715;28;20101;-84
2021/11/21 03:06:36;;;;;;;4.40;3.92;;;;;;;-2.58;100.00;92727.47;2112846;28;20028;-84
2021/11/21 03:07:42;;;;;;;3.92;3.63;;;;;;;-2.64;100.00;92734.81;2095984;28;20068;-84
2021/11/21 03:08:53;;;;;;;4.10;3.40;;;;;;;-2.62;100.00;92724.03;2098134;28;20065;-83
2021/11/21 03:09:59;;;;;;;5.22;4.55;;;;;;;-2.70;100.00;92724.97;2110754;28;20078;-83
2021/11/21 03:11:30;;;;;;;4.07;3.67;;;;;;;-2.62;100.00;92719.53;2104866;28;20024;-85
2021/11/21 03:12:32;;;;;;;4.63;4.13;;;;;;;-2.65;100.00;92714.22;2103939;28;20517;-84
2021/11/21 03:13:35;;;;;;;4.80;3.95;;;;;;;-2.61;100.00;92715.06;2104440;28;20541;-83
2021/11/21 03:14:37;;;;;;;4.65;4.25;;;;;;;-2.69;100.00;92719.38;2104934;28;20031;-84
2021/11/21 03:15:44;;;;;;;4.20;3.72;;;;;;;-2.62;100.00;92710.94;2112801;28;20607;-83
2021/11/21 03:16:52;;;;;;;4.72;4.28;;;;;;;-2.72;100.00;92714.06;2112731;28;20106;-84
2021/11/21 03:17:56;;;;;;;4.30;3.90;;;;;;;-2.73;100.00;92715.94;2105173;28;20450;-85
2021/11/21 03:18:57;;;;;;;4.70;4.15;;;;;;;-2.79;100.00;92715.44;2096879;28;20884;-82
2021/11/21 03:19:59;;;;;;;4.57;4.18;;;;;;;-2.51;100.00;92703.28;2091514;28;20155;-84
2021/11/21 03:21:00;;;;;;;5.88;4.20;;;;;;;-2.72;100.00;92709.63;2097745;28;20115;-83
2021/11/21 03:22:07;;;;;;;5.57;4.60;;;;;;;-2.83;100.00;92709.38;2097829;28;20025;-82
2021/11/21 03:23:12;;;;;;;4.88;4.45;;;;;;;-2.60;100.00;92698.25;2100239;28;20489;-84
2021/11/21 03:24:16;;;;;;;4.95;3.75;;;;;;;-2.72;100.00;92693.94;2098567;28;20032;-84
2021/11/21 03:25:25;;;;;;;4.45;4.05;;;;;;;-2.71;100.00;92700.66;2088617;28;20446;-84
2021/11/21 03:26:30;;;;;;;4.22;3.83;;;;;;;-2.78;100.00;92695.28;2092576;28;20242;-83
2021/11/21 03:27:32;;;;;;;4.53;4.13;;;;;;;-2.81;100.00;92701.97;2091506;28;20443;-82
2021/11/21 03:28:37;;;;;;;4.63;4.22;;;;;;;-2.79;100.00;92691.16;2098906;28;20054;-83
2021/11/21 03:29:46;;;;;;;5.22;4.60;;;;;;;-2.85;100.00;92698.50;2099301;28;20056;-83
2021/11/21 03:30:51;;;;;;;5.47;4.32;;;;;;;-2.75;100.00;92704.31;2099738;28;20056;-82
2021/11/21 03:31:59;;;;;;;4.28;3.78;;;;;;;-2.73;100.00;92704.72;2091516;28;20025;-83
2021/11/21 03:33:08;;;;;;;4.68;4.18;;;;;;;-2.81;100.00;92703.78;2099568;28;20066;-85
2021/11/21 03:34:15;;;;;;;4.03;3.45;;;;;;;-2.90;100.00;92705.84;2094689;28;20512;-84
2021/11/21 03:35:20;;;;;;;5.15;4.65;;;;;;;-2.84;100.00;92701.88;2091172;28;20033;-83
2021/11/21 03:36:26;;;;;;;4.57;4.18;;;;;;;-2.85;100.00;92701.13;2092865;28;20437;-84
2021/11/21 03:37:28;;;;;;;6.05;4.18;;;;;;;-2.83;100.00;92706.00;2091281;28;20066;-82
2021/11/21 03:38:29;;;;;;;4.95;4.10;;;;;;;-2.88;100.00;92696.56;2090632;28;20492;-85
2021/11/21 03:39:36;;;;;;;5.50;3.95;;;;;;;-2.86;100.00;92711.91;2098903;28;20021;-84
2021/11/21 03:40:37;;;;;;;4.30;4.00;;;;;;;-2.90;100.00;92706.59;2095234;28;20032;-83
2021/11/21 03:41:40;;;;;;;4.50;3.97;;;;;;;-2.78;100.00;92700.50;2098523;28;20504;-85
2021/11/21 03:42:41;;;;;;;4.55;4.15;;;;;;;-2.87;100.00;92702.56;2106640;28;20055;-83
2021/11/21 03:43:43;;;;;;;4.95;4.45;;;;;;;-2.85;100.00;92703.00;2098356;28;20464;-84
2021/11/21 03:44:49;;;;;;;4.28;3.88;;;;;;;-2.89;100.00;92696.94;2090426;28;20095;-83
2021/11/21 03:45:56;;;;;;;4.10;3.70;;;;;;;-2.96;100.00;92691.53;2091399;28;20521;-82
2021/11/21 03:46:57;;;;;;;3.97;3.65;;;;;;;-2.81;100.00;92686.28;2091884;28;20499;-86
2021/11/21 03:47:58;;;;;;;3.92;3.53;;;;;;;-2.70;100.00;92688.34;2106615;28;20486;-85
2021/11/21 03:49:00;;;;;;;3.88;3.47;;;;;;;-2.79;100.00;92688.53;2098670;28;20024;-84
2021/11/21 03:50:12;;;;;;;4.25;3.67;;;;;;;-2.83;100.00;92685.09;2090341;28;20017;-85
2021/11/21 03:51:12;;;;;;;5.55;3.83;;;;;;;-3.04;100.00;92677.53;2093179;28;20036;-83
2021/11/21 03:52:14;;;;;;;4.47;3.63;;;;;;;-2.95;100.00;92682.59;2090093;28;20056;-84
2021/11/21 03:53:17;;;;;;;5.22;3.75;;;;;;;-2.93;100.00;92683.03;2098673;28;20035;-83
2021/11/21 03:54:24;;;;;;;4.70;4.20;;;;;;;-2.80;100.00;92673.94;2106749;28;20020;-84
2021/11/21 03:55:31;;;;;;;4.20;3.80;;;;;;;-2.85;100.00;92674.97;2091867;28;20024;-82
2021/11/21 03:56:40;;;;;;;4.40;3.83;;;;;;;-3.00;100.00;92683.59;2099353;28;20031;-85
2021/11/21 03:57:49;;;;;;;4.03;3.63;;;;;;;-2.95;100.00;92672.13;2092328;28;20462;-84
2021/11/21 03:58:55;;;;;;;4.15;3.75;;;;;;;-2.87;100.00;92674.56;2099733;28;20031;-82
2021/11/21 04:00:00;;;;;;;4.85;4.40;;;;;;;-2.84;100.00;92671.25;2091411;28;20124;-85
2021/11/21 04:01:05;;;;;;;4.03;3.72;;;;;;;-2.91;100.00;92678.94;2091401;28;20059;-84
2021/11/21 04:02:13;;;;;;;4.13;3.80;;;;;;;-2.73;100.00;92675.94;2083167;28;20031;-83
2021/11/21 04:03:18;;;;;;;4.28;3.78;;;;;;;-2.81;100.00;92681.03;2088993;28;20525;-84
2021/11/21 04:04:21;;;;;;;4.05;3.65;;;;;;;-2.91;100.00;92670.34;2091285;28;20110;-85
2021/11/21 04:05:22;;;;;;;4.85;3.88;;;;;;;-2.95;100.00;92679.97;2098808;28;20028;-84
2021/11/21 04:06:23;;;;;;;4.80;4.10;;;;;;;-2.89;100.00;92668.91;2098205;28;20545;-84
2021/11/21 04:07:24;;;;;;;4.22;3.83;;;;;;;-2.88;100.00;92667.06;2098189;28;20476;-83
2021/11/21 04:08:25;;;;;;;3.80;3.50;;;;;;;-2.68;100.00;92659.97;2098242;28;20048;-83
2021/11/21 04:09:28;;;;;;;4.30;3.88;;;;;;;-2.71;100.00;92671.91;2098201;28;20071;-85
2021/11/21 04:10:30;;;;;;;4.88;3.88;;;;;;;-2.80;100.00;92676.56;2098610;28;20101;-85
2021/11/21 04:11:31;;;;;;;4.18;3.70;;;;;;;-2.80;100.00;92671.34;2098607;28;20066;-83
2021/11/21 04:12:34;;;;;;;4.22;3.83;;;;;;;-2.75;100.00;92673.69;2098300;28;20043;-83
2021/11/21 04:13:37;;;;;;;4.40;4.00;;;;;;;-2.84;100.00;92666.03;2098181;28;20024;-83
2021/11/21 04:14:43;;;;;;;4.50;4.10;;;;;;;-2.87;100.00;92673.78;2099100;28;20386;-83
2021/11/21 04:15:47;;;;;;;4.10;3.70;;;;;;;-2.81;100.00;92665.34;2107463;28;20016;-84
2021/11/21 04:16:49;;;;;;;4.78;3.67;;;;;;;-2.79;100.00;92667.63;2098879;28;20028;-82
2021/11/21 04:17:50;;;;;;;5.97;4.43;;;;;;;-2.80;100.00;92666.09;2098561;28;20031;-84
2021/11/21 04:18:51;;;;;;;5.32;4.10;;;;;;;-2.87;100.00;92673.78;2098260;28;20054;-84
2021/11/21 04:19:52;;;;;;;4.10;3.70;;;;;;;-2.88;100.00;92667.81;2090210;28;20082;-83
2021/11/21 04:20:55;;;;;;;4.50;4.10;;;;;;;-2.89;100.00;92666.31;2098324;28;20024;-84
2021/11/21 04:22:00;;;;;;;4.38;3.97;;;;;;;-3.05;100.00;92673.41;2115149;28;20492;-85
2021/11/21 04:23:05;;;;;;;6.07;4.18;;;;;;;-2.97;100.00;92659.41;2106479;28;20405;-83
2021/11/21 04:24:12;;;;;;;4.82;4.18;;;;;;;-3.02;100.00;92657.06;2091277;28;20493;-83
2021/11/21 04:25:14;;;;;;;6.32;4.28;;;;;;;-2.95;100.00;92661.66;2099859;28;20862;-85
2021/11/21 04:26:15;;;;;;;4.63;4.22;;;;;;;-3.01;100.00;92648.13;2098501;28;20442;-84
2021/11/21 04:27:16;;;;;;;4.72;4.32;;;;;;;-3.09;100.00;92649.81;2090117;28;20509;-85
2021/11/21 04:28:17;;;;;;;4.50;4.10;;;;;;;-3.00;100.00;92652.25;2089930;28;20467;-84
2021/11/21 04:29:23;;;;;;;4.75;4.22;;;;;;;-3.04;100.00;92644.31;2089826;28;20021;-84
2021/11/21 04:30:27;;;;;;;4.68;4.20;;;;;;;-2.94;100.00;92640.44;2099602;28;20370;-85
2021/11/21 04:31:38;;;;;;;4.38;3.97;;;;;;;-3.03;100.00;92639.84;2097663;28;20522;-84
2021/11/21 04:32:40;;;;;;;5.45;4.03;;;;;;;-2.88;100.00;92640.91;2092378;28;20025;-85
2021/11/21 04:33:41;;;;;;;4.93;4.40;;;;;;;-2.99;100.00;92643.28;2098632;28;20534;-82
2021/11/21 04:34:42;;;;;;;5.47;4.30;;;;;;;-2.99;100.00;92643.28;2106431;28;20090;-84
2021/11/21 04:35:45;;;;;;;5.18;4.65;;;;;;;-3.00;100.00;92635.78;2098068;28;20046;-84
2021/11/21 04:36:46;;;;;;;5.53;4.70;;;;;;;-2.95;100.00;92643.38;2098750;28;20043;-84
2021/11/21 04:37:49;;;;;;;4.55;4.15;;;;;;;-3.07;100.00;92642.41;2097966;28;20024;-82
2021/11/21 04:38:50;;;;;;;4.90;4.40;;;;;;;-2.91;100.00;92642.34;2098858;28;20036;-83
2021/11/21 04:39:52;;;;;;;5.30;4.80;;;;;;;-2.92;100.00;92648.69;2098070;28;20454;-83
2021/11/21 04:40:53;;;;;;;4.97;4.20;;;;;;;-2.98;100.00;92641.47;2098015;28;20023;-82
2021/11/21 04:41:54;;;;;;;5.07;4.28;;;;;;;-2.99;100.00;92642.53;2098194;28;20027;-84
2021/11/21 04:42:55;;;;;;;4.95;4.45;;;;;;;-2.96;100.00;92640.00;2088272;28;20663;-85
2021/11/21 04:43:57;;;;;;;4.95;4.45;;;;;;;-2.87;100.00;92639.81;2096691;28;20107;-84
2021/11/21 04:44:58;;;;;;;5.28;4.78;;;;;;;-2.97;100.00;92632.50;2089941;28;20049;-85
2021/11/21 04:45:59;;;;;;;4.80;4.20;;;;;;;-3.10;100.00;92640.47;2098045;28;21107;-83
2021/11/21 04:47:00;;;;;;;6.53;4.72;;;;;;;-2.95;100.00;92630.28;2098169;28;20055;-83
2021/11/21 04:48:01;;;;;;;5.13;4.60;;;;;;;-3.00;100.00;92636.56;2098072;28;20032;-85
2021/11/21 04:49:04;;;;;;;5.22;4.72;;;;;;;-3.20;100.00;92633.16;2089885;28;20136;-84
2021/11/21 04:50:10;;;;;;;5.25;4.30;;;;;;;-3.03;100.00;92634.63;2090308;28;20737;-84
2021/11/21 04:51:11;;;;;;;7.60;4.88;;;;;;;-3.02;100.00;92633.53;2091115;28;20782;-84
2021/11/21 04:52:13;;;;;;;4.70;4.30;;;;;;;-2.97;100.00;92629.91;2089764;28;20463;-85
2021/11/21 04:53:17;;;;;;;5.22;4.70;;;;;;;-2.94;100.00;92639.66;2089972;28;20029;-84
2021/11/21 04:54:20;;;;;;;5.65;4.57;;;;;;;-2.97;100.00;92624.66;2082325;28;20549;-83
2021/11/21 04:55:21;;;;;;;5.03;4.53;;;;;;;-3.09;100.00;92625.53;2089939;28;20033;-84
2021/11/21 04:56:23;;;;;;;5.07;4.57;;;;;;;-3.10;100.00;92627.41;2089684;28;20053;-83
2021/11/21 04:57:24;;;;;;;5.38;4.88;;;;;;;-3.09;100.00;92625.53;2089510;28;20024;-85
2021/11/21 04:58:29;;;;;;;5.07;4.57;;;;;;;-3.22;100.00;92626.75;2096196;28;21243;-84
2021/11/21 04:59:30;;;;;;;5.55;4.78;;;;;;;-3.21;100.00;92626.41;2098344;28;20442;-84
2021/11/21 05:00:39;;;;;;;5.13;4.63;;;;;;;-3.20;100.00;92627.94;2089610;28;20474;-83
2021/11/21 05:01:46;;;;;;;5.28;4.60;;;;;;;-3.04;100.00;92620.03;2091888;28;20995;-83
2021/11/21 05:02:48;;;;;;;4.82;4.43;;;;;;;-3.07;100.00;92624.09;2106058;28;20024;-84
2021/11/21 05:03:49;;;;;;;5.78;4.82;;;;;;;-3.07;100.00;92620.75;2090131;28;20025;-85
2021/11/21 05:04:50;;;;;;;4.97;4.47;;;;;;;-2.81;100.00;92620.13;2089509;28;20470;-83
2021/11/21 05:05:55;;;;;;;5.03;4.50;;;;;;;-3.01;100.00;92618.59;2089555;28;20066;-85
2021/11/21 05:07:03;;;;;;;5.10;4.47;;;;;;;-3.14;100.00;92625.81;2090476;28;20033;-83
2021/11/21 05:08:10;;;;;;;6.28;4.88;;;;;;;-3.13;100.00;92624.69;2097835;28;20534;-85
2021/11/21 05:09:15;;;;;;;5.43;4.93;;;;;;;-3.14;100.00;92623.94;2090118;28;20143;-84
2021/11/21 05:10:22;;;;;;;5.38;4.75;;;;;;;-3.18;100.00;92619.75;2082438;28;20033;-82
2021/11/21 05:11:29;;;;;;;5.50;5.00;;;;;;;-3.16;100.00;92613.09;2090491;28;21042;-85
2021/11/21 05:12:44;;;;;;;5.28;4.63;;;;;;;-3.18;100.00;92617.88;2083145;28;20079;-84
2021/11/21 05:13:52;;;;;;;5.53;4.88;;;;;;;-3.19;100.00;92618.22;2099748;28;20460;-85
2021/11/21 05:15:00;;;;;;;5.60;5.05;;;;;;;-3.18;100.00;92604.06;2097640;28;20025;-83
2021/11/21 05:16:04;;;;;;;6.05;5.05;;;;;;;-3.13;100.00;92609.03;2090444;28;20453;-85
2021/11/21 05:17:05;;;;;;;5.60;5.03;;;;;;;-3.08;100.00;92604.28;2082136;28;20025;-84
2021/11/21 05:18:07;;;;;;;6.13;5.53;;;;;;;-3.20;100.00;92612.25;2089674;28;21015;-84
2021/11/21 05:19:08;;;;;;;5.38;4.88;;;;;;;-3.13;100.00;92614.25;2089667;28;20029;-84
2021/11/21 05:20:11;;;;;;;5.30;4.72;;;;;;;-3.00;100.00;92609.66;2081513;28;20072;-84
2021/11/21 05:21:21;;;;;;;5.25;4.75;;;;;;;-3.08;100.00;92613.97;2081619;28;20057;-83
2021/11/21 05:22:24;;;;;;;5.85;4.63;;;;;;;-3.01;100.00;92616.75;2090439;28;20033;-85
2021/11/21 05:23:27;;;;;;;6.72;4.57;;;;;;;-3.12;100.00;92610.53;2090130;28;20840;-84
2021/11/21 05:24:31;;;;;;;6.05;5.45;;;;;;;-3.10;100.00;92618.81;2098047;28;20078;-83
2021/11/21 05:25:34;;;;;;;6.13;5.53;;;;;;;-3.17;100.00;92616.03;2089615;28;20032;-85
2021/11/21 05:26:42;;;;;;;5.38;4.70;;;;;;;-3.07;100.00;92616.25;2098227;28;20450;-83
2021/11/21 05:27:47;;;;;;;5.78;5.18;;;;;;;-3.09;100.00;92612.47;2098546;28;20032;-84
2021/11/21 05:28:48;;;;;;;5.35;4.85;;;;;;;-3.16;100.00;92615.69;2098147;28;20558;-83
2021/11/21 05:29:49;;;;;;;5.53;4.80;;;;;;;-3.20;100.00;92611.50;2089611;28;20491;-82
2021/11/21 05:30:51;;;;;;;8.48;5.20;;;;;;;-3.25;100.00;92616.97;2089544;28;20055;-83
2021/11/21 05:31:52;;;;;;;6.25;5.63;;;;;;;-3.08;100.00;92609.50;2089452;28;20508;-84
2021/11/21 05:32:53;;;;;;;6.05;5.38;;;;;;;-3.19;100.00;92611.16;2089365;28;20028;-83
2021/11/21 05:34:01;;;;;;;8.93;4.88;;;;;;;-3.05;100.00;92616.66;2103951;28;20034;-84
2021/11/21 05:35:02;;;;;;;6.47;5.03;;;;;;;-3.13;100.00;92614.25;2098598;28;20457;-84